Time;durP1;ratioP1;P1;durP2;ratioP2;P2;SDS_P1;SDS_P2;PMS_P1;PMS_P2;Temp;Humidity;BMP_temperature;BMP_pressure;BME280_temperature;BME280_humidity;BME280_pressure;Samples;Min_cycle;Max_cycle;Signal;HPM_P1;HPM_P2
2023/07/03 03:02:42;;;;;;;;;;;16.00;99.90;;;;;;5012936;28;19921;-76
2023/07/03 03:05:07;;;;;;;;;;;16.00;99.90;;;;;;4996417;28;20364;-75
2023/07/03 03:07:33;;;;;;;;;;;16.00;99.90;;;;;;5014231;28;19924;-76
2023/07/03 03:09:58;;;;;;;;;;;15.90;99.90;;;;;;5014169;28;20399;-76
2023/07/03 03:12:24;;;;;;;;;;;15.90;99.90;;;;;;4996535;28;20065;-76
2023/07/03 03:14:50;;;;;;;;;;;15.90;99.90;;;;;;5014051;28;19917;-76
2023/07/03 03:17:15;;;;;;;;;;;15.80;99.90;;;;;;4996282;28;19917;-76
2023/07/03 03:19:41;;;;;;;;;;;15.80;99.90;;;;;;4996308;28;20023;-77
2023/07/03 03:22:06;;;;;;;;;;;15.70;99.90;;;;;;4995990;28;19928;-76
2023/07/03 03:24:32;;;;;;;;;;;15.70;99.90;;;;;;4996294;28;19963;-75
2023/07/03 03:26:58;;;;;;;;;;;15.70;99.90;;;;;;4996007;28;19967;-76
2023/07/03 03:29:24;;;;;;;;;;;15.60;99.90;;;;;;4996054;28;20383;-75
2023/07/03 03:31:49;;;;;;;;;;;15.50;99.90;;;;;;4996604;28;19917;-76
2023/07/03 03:34:15;;;;;;;;;;;15.50;99.90;;;;;;4996554;28;20317;-75
2023/07/03 03:36:41;;;;;;;;;;;15.50;99.90;;;;;;5013935;28;20015;-76
2023/07/03 03:39:06;;;;;;;;;;;15.40;99.90;;;;;;5013665;28;19917;-76
2023/07/03 03:41:32;;;;;;;;;;;15.40;99.90;;;;;;4996095;28;20295;-75
2023/07/03 03:43:57;;;;;;;;;;;15.40;99.90;;;;;;5014237;28;19924;-76
2023/07/03 03:46:26;;;;;;;;;;;15.30;99.90;;;;;;4996196;28;19918;-75
2023/07/03 03:48:51;;;;;;;;;;;15.30;99.90;;;;;;5014312;28;19956;-75
2023/07/03 03:51:17;;;;;;;;;;;15.30;99.90;;;;;;4997938;28;20300;-76
2023/07/03 03:53:42;;;;;;;;;;;15.30;99.90;;;;;;4996980;28;19917;-76
2023/07/03 03:56:08;;;;;;;;;;;15.20;99.90;;;;;;4996491;28;19918;-77
2023/07/03 03:58:33;;;;;;;;;;;15.30;99.90;;;;;;4996109;28;19921;-77
2023/07/03 04:00:59;;;;;;;;;;;15.20;99.90;;;;;;4995937;28;19921;-78
2023/07/03 04:03:24;;;;;;;;;;;15.20;99.90;;;;;;5014051;28;19971;-78
2023/07/03 04:05:50;;;;;;;;;;;15.20;99.90;;;;;;4996153;28;19917;-76
2023/07/03 04:08:16;;;;;;;;;;;15.20;99.90;;;;;;5013923;28;20052;-76
2023/07/03 04:10:42;;;;;;;;;;;15.20;99.90;;;;;;4996124;28;19980;-77
2023/07/03 04:13:09;;;;;;;;;;;15.20;99.90;;;;;;5013504;28;19917;-76
2023/07/03 04:15:37;;;;;;;;;;;15.10;99.90;;;;;;4996234;28;20392;-76
2023/07/03 04:18:02;;;;;;;;;;;15.00;99.90;;;;;;4983083;28;20040;-77
2023/07/03 04:20:28;;;;;;;;;;;15.00;99.90;;;;;;4999757;28;20012;-76
2023/07/03 04:22:54;;;;;;;;;;;15.00;99.90;;;;;;5017531;28;19928;-75
2023/07/03 04:25:19;;;;;;;;;;;15.10;99.90;;;;;;4999572;28;20365;-76
2023/07/03 04:27:45;;;;;;;;;;;15.00;99.90;;;;;;4999524;28;19972;-76
2023/07/03 04:30:11;;;;;;;;;;;15.00;99.90;;;;;;4999558;28;19967;-76
2023/07/03 04:32:36;;;;;;;;;;;15.00;99.90;;;;;;4999426;28;19968;-75
2023/07/03 04:35:02;;;;;;;;;;;15.00;99.90;;;;;;4999345;28;19921;-77
2023/07/03 04:37:29;;;;;;;;;;;15.00;99.90;;;;;;4999411;28;19917;-75
2023/07/03 04:39:56;;;;;;;;;;;15.00;99.90;;;;;;4999374;28;19917;-77
2023/07/03 04:42:21;;;;;;;;;;;15.00;99.90;;;;;;5000041;28;19925;-75
2023/07/03 04:44:48;;;;;;;;;;;15.00;99.90;;;;;;5004142;28;19917;-76
2023/07/03 04:47:15;;;;;;;;;;;15.00;99.90;;;;;;4988466;28;19928;-77
2023/07/03 04:49:41;;;;;;;;;;;15.10;99.90;;;;;;5015396;28;19940;-76
2023/07/03 04:52:07;;;;;;;;;;;15.10;99.90;;;;;;5009502;28;20364;-77
2023/07/03 04:54:32;;;;;;;;;;;15.10;99.90;;;;;;5015820;28;20356;-73
2023/07/03 04:56:58;;;;;;;;;;;15.10;99.90;;;;;;5006952;28;19925;-73
2023/07/03 04:59:23;;;;;;;;;;;15.20;99.90;;;;;;5007866;28;20027;-73
2023/07/03 05:01:49;;;;;;;;;;;15.20;99.90;;;;;;5016295;28;19925;-73
2023/07/03 05:04:14;;;;;;;;;;;15.30;99.90;;;;;;5015320;28;19940;-73
2023/07/03 05:06:40;;;;;;;;;;;15.30;99.90;;;;;;5014258;28;19940;-72
2023/07/03 05:09:05;;;;;;;;;;;15.30;99.90;;;;;;5007083;28;20000;-75
2023/07/03 05:11:32;;;;;;;;;;;15.30;99.90;;;;;;5011920;28;19967;-73
2023/07/03 05:13:58;;;;;;;;;;;15.30;99.90;;;;;;5016225;28;19921;-74
2023/07/03 05:16:23;;;;;;;;;;;15.40;99.90;;;;;;4998487;28;20439;-74
2023/07/03 05:18:49;;;;;;;;;;;15.40;99.90;;;;;;5016007;28;19918;-73
2023/07/03 05:21:15;;;;;;;;;;;15.40;99.90;;;;;;4998334;28;19921;-74
2023/07/03 05:23:40;;;;;;;;;;;15.40;99.90;;;;;;5014715;28;19965;-75
2023/07/03 05:26:06;;;;;;;;;;;15.40;99.90;;;;;;5016043;28;19918;-70
2023/07/03 05:28:32;;;;;;;;;;;15.40;99.90;;;;;;4997911;28;19917;-73
2023/07/03 05:30:58;;;;;;;;;;;15.50;99.90;;;;;;4998440;28;20007;-74
2023/07/03 05:33:25;;;;;;;;;;;15.50;99.90;;;;;;5015947;28;19918;-74
2023/07/03 05:35:50;;;;;;;;;;;15.50;99.90;;;;;;5015566;28;19924;-75
2023/07/03 05:38:16;;;;;;;;;;;15.50;99.90;;;;;;5014374;28;19917;-74
2023/07/03 05:40:41;;;;;;;;;;;15.50;99.90;;;;;;4998081;28;19922;-72
2023/07/03 05:43:07;;;;;;;;;;;15.60;99.90;;;;;;5016075;28;20296;-72
2023/07/03 05:45:33;;;;;;;;;;;15.60;99.90;;;;;;5015882;28;20360;-74
2023/07/03 05:47:58;;;;;;;;;;;15.60;99.90;;;;;;4998306;28;19939;-73
2023/07/03 05:50:23;;;;;;;;;;;15.60;99.90;;;;;;4998108;28;20292;-73
2023/07/03 05:52:49;;;;;;;;;;;15.80;99.90;;;;;;5015472;28;19917;-73
2023/07/03 05:55:15;;;;;;;;;;;15.80;99.90;;;;;;5015888;28;19918;-74
2023/07/03 05:57:40;;;;;;;;;;;15.90;99.90;;;;;;4997589;28;20008;-75
2023/07/03 06:00:13;;;;;;;;;;;16.00;99.90;;;;;;4997714;28;20012;-74
2023/07/03 06:02:42;;;;;;;;;;;16.10;99.90;;;;;;4997915;28;20320;-75
2023/07/03 06:05:08;;;;;;;;;;;16.20;99.90;;;;;;4997648;28;19917;-76
2023/07/03 06:07:33;;;;;;;;;;;16.30;99.90;;;;;;5015154;28;20022;-74
2023/07/03 06:09:59;;;;;;;;;;;16.30;99.90;;;;;;4997510;28;19917;-73
2023/07/03 06:12:29;;;;;;;;;;;16.30;99.90;;;;;;5014970;28;19917;-75
2023/07/03 06:14:56;;;;;;;;;;;16.20;99.90;;;;;;4997695;28;19944;-75
2023/07/03 06:17:22;;;;;;;;;;;16.20;99.90;;;;;;4981078;28;19917;-75
2023/07/03 06:19:47;;;;;;;;;;;16.20;99.90;;;;;;4997165;28;19924;-75
2023/07/03 06:22:13;;;;;;;;;;;16.10;99.90;;;;;;4997106;28;19921;-76
2023/07/03 06:24:39;;;;;;;;;;;16.20;99.90;;;;;;5014736;28;19967;-75
2023/07/03 06:27:06;;;;;;;;;;;16.20;99.90;;;;;;4997223;28;20308;-73
2023/07/03 06:29:32;;;;;;;;;;;16.20;99.90;;;;;;5014602;28;20420;-75
2023/07/03 06:31:58;;;;;;;;;;;16.20;99.90;;;;;;5014847;28;19917;-72
2023/07/03 06:34:23;;;;;;;;;;;16.30;99.90;;;;;;5014686;28;19924;-74
2023/07/03 06:36:49;;;;;;;;;;;16.30;99.90;;;;;;5014897;28;19925;-75
2023/07/03 06:39:15;;;;;;;;;;;16.20;99.90;;;;;;5013993;28;20369;-75
2023/07/03 06:41:40;;;;;;;;;;;16.20;99.90;;;;;;4996875;28;20361;-75
2023/07/03 06:44:06;;;;;;;;;;;16.20;99.90;;;;;;4996932;28;19918;-75
2023/07/03 06:46:32;;;;;;;;;;;16.30;99.90;;;;;;5014528;28;19918;-76
2023/07/03 06:48:57;;;;;;;;;;;16.30;99.90;;;;;;4996703;28;20410;-77
2023/07/03 06:51:23;;;;;;;;;;;16.30;99.90;;;;;;4996716;28;19921;-71
2023/07/03 06:53:48;;;;;;;;;;;16.30;99.90;;;;;;5014206;28;20000;-75
2023/07/03 06:56:14;;;;;;;;;;;16.30;99.90;;;;;;5014307;28;19968;-74
2023/07/03 06:58:40;;;;;;;;;;;16.30;99.90;;;;;;5014155;28;19925;-73
2023/07/03 07:01:12;;;;;;;;;;;16.30;99.90;;;;;;5014077;28;19921;-75
2023/07/03 07:03:38;;;;;;;;;;;16.40;99.90;;;;;;5013172;28;19975;-74
2023/07/03 07:06:11;;;;;;;;;;;16.40;99.90;;;;;;5014767;28;19917;-72
2023/07/03 07:08:36;;;;;;;;;;;16.50;99.90;;;;;;5014427;28;20337;-73
2023/07/03 07:11:03;;;;;;;;;;;16.60;99.90;;;;;;5013920;28;19972;-74
2023/07/03 07:13:28;;;;;;;;;;;16.70;99.90;;;;;;5014174;28;20365;-75
2023/07/03 07:15:54;;;;;;;;;;;16.80;99.90;;;;;;4996321;28;19922;-74
2023/07/03 07:18:19;;;;;;;;;;;16.80;99.90;;;;;;5014095;28;19918;-73
2023/07/03 07:20:45;;;;;;;;;;;16.80;99.90;;;;;;5013886;28;19922;-75
2023/07/03 07:23:10;;;;;;;;;;;16.80;99.90;;;;;;5014003;28;19918;-75
2023/07/03 07:25:36;;;;;;;;;;;16.90;99.90;;;;;;5013885;28;19928;-76
2023/07/03 07:28:01;;;;;;;;;;;17.00;99.90;;;;;;4996240;28;19953;-75
2023/07/03 07:30:27;;;;;;;;;;;17.10;99.90;;;;;;4996029;28;19957;-73
2023/07/03 07:32:53;;;;;;;;;;;17.10;99.90;;;;;;5012811;28;20287;-75
2023/07/03 07:35:18;;;;;;;;;;;17.20;99.90;;;;;;5013891;28;20007;-76
2023/07/03 07:37:44;;;;;;;;;;;17.10;99.90;;;;;;4995945;28;19954;-75
2023/07/03 07:40:10;;;;;;;;;;;17.10;99.90;;;;;;4996404;28;19967;-74
2023/07/03 07:42:36;;;;;;;;;;;17.00;99.90;;;;;;5013816;28;20416;-73
2023/07/03 07:45:02;;;;;;;;;;;16.90;99.90;;;;;;5013715;28;19917;-74
2023/07/03 07:47:28;;;;;;;;;;;16.90;99.90;;;;;;4996078;28;20336;-74
2023/07/03 07:49:54;;;;;;;;;;;16.80;99.90;;;;;;4996002;28;19968;-72
2023/07/03 07:52:19;;;;;;;;;;;16.90;99.90;;;;;;5017394;28;19924;-75
2023/07/03 07:54:45;;;;;;;;;;;16.90;99.90;;;;;;5000051;28;19918;-75
2023/07/03 07:57:10;;;;;;;;;;;17.00;99.90;;;;;;5017566;28;19924;-75
2023/07/03 07:59:36;;;;;;;;;;;17.10;99.90;;;;;;4999908;28;20318;-75
2023/07/03 08:02:02;;;;;;;;;;;17.10;99.90;;;;;;5017352;28;20389;-75
2023/07/03 08:04:27;;;;;;;;;;;17.10;99.90;;;;;;5016550;28;19924;-76
2023/07/03 08:06:53;;;;;;;;;;;17.10;99.90;;;;;;5000017;28;20361;-74
2023/07/03 08:09:21;;;;;;;;;;;17.00;99.90;;;;;;5016077;28;20381;-74
2023/07/03 08:11:46;;;;;;;;;;;17.00;99.90;;;;;;5016015;28;19925;-74
2023/07/03 08:14:12;;;;;;;;;;;17.00;99.90;;;;;;4999935;28;19917;-73
2023/07/03 08:16:37;;;;;;;;;;;16.90;99.90;;;;;;5017490;28;20353;-74
2023/07/03 08:19:03;;;;;;;;;;;16.80;99.90;;;;;;4999499;28;19917;-74
2023/07/03 08:21:28;;;;;;;;;;;16.60;99.90;;;;;;4999879;28;19926;-77
2023/07/03 08:23:54;;;;;;;;;;;16.20;99.90;;;;;;4999482;28;19931;-76
2023/07/03 08:26:21;;;;;;;;;;;15.80;99.90;;;;;;4999494;28;19960;-77
2023/07/03 08:28:47;;;;;;;;;;;15.60;99.90;;;;;;4999800;28;19925;-76
2023/07/03 08:31:12;;;;;;;;;;;15.40;99.90;;;;;;4999462;28;20016;-76
2023/07/03 08:33:38;;;;;;;;;;;15.30;99.90;;;;;;4999341;28;19975;-76
2023/07/03 08:36:05;;;;;;;;;;;15.10;99.90;;;;;;4999896;28;19917;-76
2023/07/03 08:38:31;;;;;;;;;;;15.10;99.90;;;;;;4999193;28;19917;-77
2023/07/03 08:41:00;;;;;;;;;;;15.10;99.90;;;;;;4999712;28;20026;-77
2023/07/03 08:43:39;;;;;;;;;;;15.20;99.90;;;;;;5015527;28;19960;-77
2023/07/03 08:46:08;;;;;;;;;;;15.30;99.90;;;;;;4999001;28;20284;-77
2023/07/03 08:48:35;;;;;;;;;;;15.40;99.90;;;;;;4999373;28;20016;-75
2023/07/03 08:51:02;;;;;;;;;;;15.60;99.90;;;;;;5015659;28;19956;-77
2023/07/03 08:53:34;;;;;;;;;;;15.80;99.90;;;;;;5017158;28;20375;-75
2023/07/03 08:56:04;;;;;;;;;;;16.00;99.90;;;;;;5016527;28;19917;-76
2023/07/03 08:58:29;;;;;;;;;;;16.30;99.90;;;;;;4982603;28;19992;-76
2023/07/03 09:01:06;;;;;;;;;;;16.50;99.90;;;;;;4982716;28;20005;-73
2023/07/03 09:03:41;;;;;;;;;;;16.70;99.90;;;;;;4997881;28;19917;-76
2023/07/03 09:06:15;;;;;;;;;;;16.90;99.90;;;;;;4998748;28;20361;-73
2023/07/03 09:08:55;;;;;;;;;;;17.00;99.90;;;;;;5015095;28;19924;-75
2023/07/03 09:11:22;;;;;;;;;;;17.10;99.90;;;;;;4998952;28;19921;-72
2023/07/03 09:13:51;;;;;;;;;;;17.30;99.90;;;;;;4998600;28;20432;-74
2023/07/03 09:16:19;;;;;;;;;;;17.40;99.90;;;;;;4998485;28;19917;-73
2023/07/03 09:18:57;;;;;;;;;;;17.40;99.90;;;;;;5016020;28;19971;-76
2023/07/03 09:21:23;;;;;;;;;;;17.50;99.90;;;;;;4998455;28;19975;-76
2023/07/03 09:23:55;;;;;;;;;;;17.60;99.90;;;;;;5016033;28;19917;-74
2023/07/03 09:26:28;;;;;;;;;;;17.60;99.90;;;;;;4998969;28;19964;-76
2023/07/03 09:28:58;;;;;;;;;;;17.70;99.90;;;;;;5016215;28;20357;-74
2023/07/03 09:31:27;;;;;;;;;;;17.70;99.90;;;;;;4998226;28;19925;-74
2023/07/03 09:33:52;;;;;;;;;;;17.70;99.90;;;;;;5016003;28;20323;-74
2023/07/03 09:36:28;;;;;;;;;;;17.60;99.90;;;;;;4998285;28;20004;-74
2023/07/03 09:38:54;;;;;;;;;;;17.60;99.90;;;;;;4998165;28;19917;-76
2023/07/03 09:41:24;;;;;;;;;;;17.80;99.90;;;;;;4997998;28;19944;-73
2023/07/03 09:43:49;;;;;;;;;;;17.90;99.90;;;;;;4999018;28;19968;-75
2023/07/03 09:46:16;;;;;;;;;;;17.80;99.90;;;;;;5015739;28;20388;-73
2023/07/03 09:48:42;;;;;;;;;;;17.80;99.90;;;;;;5016031;28;19979;-73
2023/07/03 09:51:20;;;;;;;;;;;17.80;99.90;;;;;;4998705;28;20008;-74
2023/07/03 09:53:46;;;;;;;;;;;17.70;99.90;;;;;;4998152;28;20344;-74
2023/07/03 09:56:14;;;;;;;;;;;17.50;99.90;;;;;;4997700;28;19966;-75
2023/07/03 09:58:43;;;;;;;;;;;17.50;99.90;;;;;;4997647;28;19917;-74
2023/07/03 10:01:15;;;;;;;;;;;17.40;99.90;;;;;;5016973;28;20339;-74
2023/07/03 10:03:40;;;;;;;;;;;17.40;99.90;;;;;;5000830;28;19917;-74
2023/07/03 10:06:17;;;;;;;;;;;17.40;99.90;;;;;;5016966;28;19917;-74
2023/07/03 10:08:47;;;;;;;;;;;17.50;99.90;;;;;;4998549;28;19917;-72
2023/07/03 10:11:16;;;;;;;;;;;17.50;99.90;;;;;;5015484;28;19968;-75
2023/07/03 10:13:46;;;;;;;;;;;17.60;99.90;;;;;;4981534;28;19972;-74
2023/07/03 10:16:13;;;;;;;;;;;17.70;99.90;;;;;;4997595;28;19924;-74
2023/07/03 10:18:42;;;;;;;;;;;17.90;99.90;;;;;;4997520;28;19918;-74
2023/07/03 10:21:10;;;;;;;;;;;17.90;99.90;;;;;;5014033;28;20293;-75
2023/07/03 10:23:37;;;;;;;;;;;18.00;99.90;;;;;;4997481;28;19917;-74
2023/07/03 10:26:12;;;;;;;;;;;18.00;99.90;;;;;;5014972;28;20000;-74
2023/07/03 10:28:39;;;;;;;;;;;18.10;99.90;;;;;;5015032;28;20112;-74
2023/07/03 10:31:08;;;;;;;;;;;18.30;99.90;;;;;;4997160;28;19927;-75
2023/07/03 10:33:38;;;;;;;;;;;18.20;99.90;;;;;;5013596;28;19925;-75
2023/07/03 10:36:06;;;;;;;;;;;18.10;99.90;;;;;;4997405;28;19917;-73
2023/07/03 10:38:31;;;;;;;;;;;18.00;99.90;;;;;;4997027;28;19925;-74
2023/07/03 10:40:59;;;;;;;;;;;18.00;99.90;;;;;;4997092;28;19985;-74
2023/07/03 10:43:28;;;;;;;;;;;18.00;99.90;;;;;;4997062;28;19957;-75
2023/07/03 10:45:54;;;;;;;;;;;18.00;99.90;;;;;;5014572;28;20008;-75
2023/07/03 10:48:23;;;;;;;;;;;17.90;99.90;;;;;;5014407;28;19953;-74
2023/07/03 10:50:48;;;;;;;;;;;17.80;99.90;;;;;;4997220;28;19917;-74
2023/07/03 10:53:13;;;;;;;;;;;17.80;99.90;;;;;;4997607;28;19928;-73
2023/07/03 10:55:39;;;;;;;;;;;17.70;99.90;;;;;;5014902;28;20042;-76
2023/07/03 10:58:07;;;;;;;;;;;17.60;99.90;;;;;;5014236;28;19917;-73
2023/07/03 11:00:53;;;;;;;;;;;17.50;99.90;;;;;;4996839;28;20282;-76
2023/07/03 11:03:37;;;;;;;;;;;17.40;99.90;;;;;;4996036;28;19924;-74
2023/07/03 11:06:03;;;;;;;;;;;17.40;99.90;;;;;;4996638;28;19924;-72
2023/07/03 11:08:47;;;;;;;;;;;17.50;99.90;;;;;;4996551;28;19917;-75
2023/07/03 11:11:34;;;;;;;;;;;17.60;99.90;;;;;;4996471;28;19961;-73
2023/07/03 11:14:06;;;;;;;;;;;17.60;99.90;;;;;;5014190;28;19924;-74
2023/07/03 11:16:42;;;;;;;;;;;17.60;99.90;;;;;;4996479;28;19924;-74
2023/07/03 11:19:29;;;;;;;;;;;17.50;99.90;;;;;;5014264;28;19995;-74
2023/07/03 11:22:21;;;;;;;;;;;17.40;99.90;;;;;;4996439;28;19932;-73
2023/07/03 11:24:57;;;;;;;;;;;17.70;99.90;;;;;;4977985;28;19917;-75
2023/07/03 11:27:37;;;;;;;;;;;17.90;99.90;;;;;;5014125;28;19921;-74
2023/07/03 11:30:03;;;;;;;;;;;18.00;99.90;;;;;;4996514;28;19917;-75
2023/07/03 11:32:30;;;;;;;;;;;18.30;99.90;;;;;;4996173;28;19917;-76
2023/07/03 11:34:56;;;;;;;;;;;18.60;99.90;;;;;;5012681;28;19924;-76
2023/07/03 11:37:27;;;;;;;;;;;18.80;99.90;;;;;;4996344;28;19918;-75
2023/07/03 11:39:53;;;;;;;;;;;18.80;99.90;;;;;;4996206;28;19924;-74
2023/07/03 11:42:22;;;;;;;;;;;18.70;99.90;;;;;;5013736;28;19921;-75
2023/07/03 11:44:56;;;;;;;;;;;18.50;99.90;;;;;;4996545;28;20265;-75
2023/07/03 11:47:27;;;;;;;;;;;18.30;99.90;;;;;;5014437;28;19921;-75
2023/07/03 11:50:00;;;;;;;;;;;18.20;99.90;;;;;;4996183;28;20308;-76
2023/07/03 11:52:29;;;;;;;;;;;18.00;99.90;;;;;;5013852;28;19918;-75
2023/07/03 11:54:59;;;;;;;;;;;17.80;99.90;;;;;;4996453;28;20399;-76
2023/07/03 11:57:33;;;;;;;;;;;17.60;99.90;;;;;;5014233;28;19918;-75
2023/07/03 12:00:18;;;;;;;;;;;17.50;99.90;;;;;;5013530;28;19921;-74
2023/07/03 12:02:52;;;;;;;;;;;17.50;99.90;;;;;;5012601;28;20392;-74
2023/07/03 12:05:36;;;;;;;;;;;17.40;99.90;;;;;;5013629;28;20312;-76
2023/07/03 12:08:02;;;;;;;;;;;17.30;99.90;;;;;;4995925;28;19918;-75
2023/07/03 12:10:27;;;;;;;;;;;17.30;99.90;;;;;;5013460;28;20308;-75
2023/07/03 12:13:11;;;;;;;;;;;17.30;99.90;;;;;;4995861;28;19968;-75
2023/07/03 12:15:37;;;;;;;;;;;17.20;99.90;;;;;;4995835;28;19918;-74
2023/07/03 12:18:03;;;;;;;;;;;17.20;99.90;;;;;;4979616;28;19925;-75
2023/07/03 12:20:28;;;;;;;;;;;17.20;99.90;;;;;;5013738;28;19922;-74
2023/07/03 12:22:54;;;;;;;;;;;17.20;99.90;;;;;;5012285;28;19928;-76
2023/07/03 12:25:21;;;;;;;;;;;17.10;99.90;;;;;;5013422;28;19918;-74
2023/07/03 12:27:48;;;;;;;;;;;17.10;99.90;;;;;;5012688;28;19918;-75
2023/07/03 12:30:27;;;;;;;;;;;17.10;99.90;;;;;;4995865;28;19924;-75
2023/07/03 12:32:53;;;;;;;;;;;17.10;99.90;;;;;;5013333;28;19921;-76
2023/07/03 12:35:22;;;;;;;;;;;17.10;99.90;;;;;;4995727;28;20430;-76
2023/07/03 12:37:52;;;;;;;;;;;17.10;99.90;;;;;;4996934;28;20012;-74
2023/07/03 12:40:18;;;;;;;;;;;17.10;99.90;;;;;;5016795;28;19917;-75
2023/07/03 12:42:45;;;;;;;;;;;17.10;99.90;;;;;;4999297;28;19928;-74
2023/07/03 12:45:17;;;;;;;;;;;17.10;99.90;;;;;;5017000;28;19917;-74
2023/07/03 12:47:43;;;;;;;;;;;17.20;99.90;;;;;;4999220;28;20360;-75
2023/07/03 12:50:13;;;;;;;;;;;17.40;99.90;;;;;;4999725;28;20005;-73
2023/07/03 12:52:38;;;;;;;;;;;17.50;99.90;;;;;;4998975;28;19917;-75
2023/07/03 12:55:06;;;;;;;;;;;17.50;99.90;;;;;;4999298;28;19921;-75
2023/07/03 12:57:34;;;;;;;;;;;17.50;99.90;;;;;;4998957;28;19918;-74
2023/07/03 13:00:00;;;;;;;;;;;17.50;99.90;;;;;;4999399;28;19917;-74
2023/07/03 13:02:27;;;;;;;;;;;17.40;99.90;;;;;;4998636;28;19922;-76
2023/07/03 13:05:03;;;;;;;;;;;17.50;99.90;;;;;;4999791;28;20367;-75
2023/07/03 13:07:29;;;;;;;;;;;17.50;99.90;;;;;;4998823;28;20051;-74
2023/07/03 13:09:56;;;;;;;;;;;17.70;99.90;;;;;;5016544;28;19956;-75
2023/07/03 13:12:23;;;;;;;;;;;18.00;99.90;;;;;;4998951;28;20018;-76
2023/07/03 13:15:01;;;;;;;;;;;18.20;99.90;;;;;;5016531;28;20399;-77
2023/07/03 13:17:28;;;;;;;;;;;18.20;99.90;;;;;;4998607;28;19956;-75
2023/07/03 13:19:54;;;;;;;;;;;18.10;99.90;;;;;;5016131;28;19918;-76
2023/07/03 13:22:20;;;;;;;;;;;18.00;99.90;;;;;;4998741;28;19928;-75
2023/07/03 13:24:47;;;;;;;;;;;17.80;99.90;;;;;;5016864;28;20277;-73
2023/07/03 13:27:21;;;;;;;;;;;17.70;99.90;;;;;;5016018;28;20368;-75
2023/07/03 13:29:47;;;;;;;;;;;17.60;99.90;;;;;;4998342;28;19967;-74
2023/07/03 13:32:13;;;;;;;;;;;17.40;99.90;;;;;;4998496;28;19921;-74
2023/07/03 13:34:56;;;;;;;;;;;17.40;99.90;;;;;;5015892;28;19923;-75
2023/07/03 13:37:27;;;;;;;;;;;17.30;99.90;;;;;;4998413;28;19917;-75
2023/07/03 13:39:52;;;;;;;;;;;17.30;99.90;;;;;;4998040;28;19917;-75
2023/07/03 13:42:18;;;;;;;;;;;17.10;99.90;;;;;;4998145;28;19921;-75
2023/07/03 13:44:44;;;;;;;;;;;17.00;99.90;;;;;;5014463;28;19921;-74
2023/07/03 13:47:09;;;;;;;;;;;17.00;99.90;;;;;;4998485;28;19959;-74
2023/07/03 13:49:35;;;;;;;;;;;17.00;99.90;;;;;;4997597;28;19917;-74
2023/07/03 13:52:01;;;;;;;;;;;17.00;99.90;;;;;;5015637;28;19918;-74
2023/07/03 13:54:26;;;;;;;;;;;17.00;99.90;;;;;;5015393;28;20382;-76
2023/07/03 13:56:52;;;;;;;;;;;16.90;99.90;;;;;;4997888;28;19921;-76
2023/07/03 13:59:18;;;;;;;;;;;17.00;99.90;;;;;;4997722;28;19968;-74
2023/07/03 14:01:43;;;;;;;;;;;16.90;99.90;;;;;;4997494;28;19960;-72
2023/07/03 14:04:10;;;;;;;;;;;17.00;99.90;;;;;;4997683;28;20328;-73
2023/07/03 14:06:35;;;;;;;;;;;17.00;99.90;;;;;;5015252;28;19917;-74
2023/07/03 14:09:01;;;;;;;;;;;17.00;99.90;;;;;;5013976;28;20388;-74
2023/07/03 14:11:26;;;;;;;;;;;17.10;99.90;;;;;;5014283;28;19917;-74
2023/07/03 14:13:52;;;;;;;;;;;16.90;99.90;;;;;;5015044;28;20447;-76
2023/07/03 14:16:18;;;;;;;;;;;16.80;99.90;;;;;;5014970;28;19921;-74
2023/07/03 14:18:44;;;;;;;;;;;16.80;99.90;;;;;;4997667;28;19917;-74
2023/07/03 14:21:13;;;;;;;;;;;16.70;99.90;;;;;;5015498;28;19971;-75
2023/07/03 14:23:40;;;;;;;;;;;16.70;99.90;;;;;;5013639;28;20005;-75
2023/07/03 14:26:07;;;;;;;;;;;16.70;99.90;;;;;;5015326;28;20276;-74
2023/07/03 14:28:33;;;;;;;;;;;16.70;99.90;;;;;;4997174;28;19924;-75
2023/07/03 14:30:58;;;;;;;;;;;16.80;99.90;;;;;;4996963;28;19917;-74
2023/07/03 14:33:24;;;;;;;;;;;16.80;99.90;;;;;;4997065;28;19921;-73
2023/07/03 14:35:49;;;;;;;;;;;16.90;99.90;;;;;;5015175;28;19918;-74
2023/07/03 14:38:15;;;;;;;;;;;16.90;99.90;;;;;;4996940;28;19918;-74
2023/07/03 14:40:40;;;;;;;;;;;16.90;99.90;;;;;;4996911;28;19929;-75
2023/07/03 14:43:07;;;;;;;;;;;16.90;99.90;;;;;;5014758;28;19924;-73
2023/07/03 14:45:33;;;;;;;;;;;16.80;99.90;;;;;;4996764;28;19972;-72
2023/07/03 14:47:58;;;;;;;;;;;16.80;99.90;;;;;;5014671;28;19961;-74
2023/07/03 14:50:24;;;;;;;;;;;16.70;99.90;;;;;;4996634;28;19936;-73
2023/07/03 14:52:50;;;;;;;;;;;16.50;99.90;;;;;;4996765;28;20324;-75
2023/07/03 14:55:16;;;;;;;;;;;16.40;99.90;;;;;;4980456;28;19917;-74
2023/07/03 14:57:42;;;;;;;;;;;16.30;99.90;;;;;;4996995;28;19939;-75
2023/07/03 15:00:08;;;;;;;;;;;16.30;99.90;;;;;;4995987;28;19935;-74
2023/07/03 15:02:41;;;;;;;;;;;16.40;99.90;;;;;;4996373;28;19925;-73
2023/07/03 15:05:07;;;;;;;;;;;16.50;99.90;;;;;;4996867;28;19995;-74
2023/07/03 15:07:36;;;;;;;;;;;16.50;99.90;;;;;;4996493;28;20352;-76
2023/07/03 15:10:02;;;;;;;;;;;16.70;99.90;;;;;;4996433;28;19927;-75
2023/07/03 15:12:28;;;;;;;;;;;16.80;99.90;;;;;;5013967;28;20008;-76
2023/07/03 15:14:53;;;;;;;;;;;16.90;99.90;;;;;;4996710;28;19983;-75
2023/07/03 15:17:19;;;;;;;;;;;17.10;99.90;;;;;;4996615;28;19960;-76
2023/07/03 15:19:44;;;;;;;;;;;17.20;99.90;;;;;;4996245;28;20008;-75
2023/07/03 15:22:11;;;;;;;;;;;17.10;99.90;;;;;;5014092;28;20350;-75
2023/07/03 15:24:36;;;;;;;;;;;17.20;99.90;;;;;;4996253;28;19967;-75
2023/07/03 15:27:02;;;;;;;;;;;17.20;99.90;;;;;;4996359;28;19940;-74
2023/07/03 15:29:28;;;;;;;;;;;17.40;99.90;;;;;;4996195;28;19940;-73
2023/07/03 15:31:54;;;;;;;;;;;17.50;99.90;;;;;;5013713;28;19964;-73
2023/07/03 15:34:22;;;;;;;;;;;17.70;99.90;;;;;;5012928;28;19917;-74
2023/07/03 15:36:52;;;;;;;;;;;17.80;99.90;;;;;;4996143;28;20347;-74
2023/07/03 15:39:18;;;;;;;;;;;18.00;99.90;;;;;;5013750;28;19928;-76
2023/07/03 15:41:45;;;;;;;;;;;18.10;99.90;;;;;;4996503;28;19921;-75
2023/07/03 15:44:11;;;;;;;;;;;18.20;99.90;;;;;;5012527;28;19917;-75
2023/07/03 15:46:37;;;;;;;;;;;18.10;99.90;;;;;;4996089;28;19967;-76
2023/07/03 15:49:02;;;;;;;;;;;18.40;99.90;;;;;;4996043;28;19967;-75
2023/07/03 15:51:28;;;;;;;;;;;18.30;99.90;;;;;;4996050;28;20344;-75
2023/07/03 15:53:53;;;;;;;;;;;18.40;99.90;;;;;;5013625;28;19917;-74
2023/07/03 15:56:19;;;;;;;;;;;18.40;99.90;;;;;;4996272;28;19917;-76
2023/07/03 15:58:46;;;;;;;;;;;18.30;99.90;;;;;;4995991;28;20388;-75
2023/07/03 16:01:13;;;;;;;;;;;18.40;99.90;;;;;;4995674;28;19918;-73
2023/07/03 16:03:39;;;;;;;;;;;18.30;99.90;;;;;;5012450;28;19924;-74
2023/07/03 16:06:06;;;;;;;;;;;18.40;99.90;;;;;;5012303;28;19921;-74
2023/07/03 16:08:32;;;;;;;;;;;18.50;99.90;;;;;;4995991;28;19917;-75
2023/07/03 16:10:58;;;;;;;;;;;18.50;99.90;;;;;;4996133;28;19921;-74
2023/07/03 16:13:26;;;;;;;;;;;18.50;99.90;;;;;;4999720;28;20369;-74
2023/07/03 16:15:53;;;;;;;;;;;18.50;99.90;;;;;;5016292;28;20316;-73
2023/07/03 16:18:19;;;;;;;;;;;18.40;99.90;;;;;;4999595;28;19923;-75
2023/07/03 16:20:54;;;;;;;;;;;18.30;99.90;;;;;;4999626;28;19917;-75
2023/07/03 16:23:20;;;;;;;;;;;18.30;99.90;;;;;;4999903;28;19975;-74
2023/07/03 16:25:49;;;;;;;;;;;18.40;99.90;;;;;;4999513;28;20352;-75
2023/07/03 16:28:15;;;;;;;;;;;18.40;99.90;;;;;;5017100;28;19921;-74
2023/07/03 16:30:41;;;;;;;;;;;18.30;99.90;;;;;;4999689;28;20295;-75
2023/07/03 16:33:06;;;;;;;;;;;18.30;99.90;;;;;;5017584;28;19918;-75
2023/07/03 16:35:32;;;;;;;;;;;18.30;99.90;;;;;;5015740;28;20343;-75
2023/07/03 16:38:00;;;;;;;;;;;18.20;99.90;;;;;;4999338;28;19924;-74
2023/07/03 16:40:25;;;;;;;;;;;18.20;99.90;;;;;;4982997;28;19921;-75
2023/07/03 16:42:51;;;;;;;;;;;18.00;99.90;;;;;;4999141;28;19968;-74
2023/07/03 16:45:17;;;;;;;;;;;17.90;99.90;;;;;;5001145;28;19949;-75
2023/07/03 16:47:42;;;;;;;;;;;17.90;99.90;;;;;;5002573;28;20285;-74
2023/07/03 16:50:08;;;;;;;;;;;17.80;99.90;;;;;;5019249;28;20089;-75
2023/07/03 16:52:34;;;;;;;;;;;17.80;99.90;;;;;;5017127;28;19924;-75
2023/07/03 16:54:59;;;;;;;;;;;17.80;99.90;;;;;;4999813;28;19964;-74
2023/07/03 16:57:26;;;;;;;;;;;17.80;99.90;;;;;;5017418;28;19924;-75
2023/07/03 16:59:52;;;;;;;;;;;17.80;99.90;;;;;;4999188;28;19921;-75
2023/07/03 17:02:17;;;;;;;;;;;17.80;99.90;;;;;;4998930;28;19924;-74
2023/07/03 17:04:43;;;;;;;;;;;17.80;99.90;;;;;;4999026;28;19917;-74
2023/07/03 17:07:08;;;;;;;;;;;17.80;99.90;;;;;;4998798;28;20008;-75
2023/07/03 17:09:34;;;;;;;;;;;17.80;99.90;;;;;;4999066;28;20063;-75
2023/07/03 17:11:59;;;;;;;;;;;17.80;99.90;;;;;;4998906;28;19987;-76
2023/07/03 17:14:25;;;;;;;;;;;17.80;99.90;;;;;;4999818;28;19987;-75
2023/07/03 17:16:50;;;;;;;;;;;17.80;99.90;;;;;;4998737;28;20373;-74
2023/07/03 17:19:16;;;;;;;;;;;17.80;99.90;;;;;;5016186;28;19968;-74